Time;durP1;ratioP1;P1;durP2;ratioP2;P2;SDS_P1;SDS_P2;PMS_P1;PMS_P2;Temp;Humidity;BMP_temperature;BMP_pressure;BME280_temperature;BME280_humidity;BME280_pressure;Samples;Min_cycle;Max_cycle;Signal;HPM_P1;HPM_P2
2022/03/05 00:02:24;;;;;;;80.10;40.33;;;;;;;3.27;66.97;100084.75;4429748;32;34401;-87
2022/03/05 00:05:12;;;;;;;90.18;43.17;;;;;;;3.21;66.64;100085.75;4424351;32;34256;-86
2022/03/05 00:07:59;;;;;;;87.07;41.15;;;;;;;2.64;69.15;100084.97;4425823;32;34615;-86
2022/03/05 00:10:45;;;;;;;75.40;37.92;;;;;;;1.92;72.67;100091.09;4424489;32;34250;-86
2022/03/05 00:13:32;;;;;;;67.12;34.00;;;;;;;1.83;73.97;100086.34;4428346;32;34526;-86
2022/03/05 00:16:18;;;;;;;68.43;34.72;;;;;;;2.87;68.80;100091.25;4424010;32;35818;-86
2022/03/05 00:19:04;;;;;;;70.25;34.28;;;;;;;2.32;69.80;100082.03;4424115;32;34849;-85
2022/03/05 00:21:51;;;;;;;65.78;33.22;;;;;;;1.47;74.54;100088.34;4425512;32;34006;-86
2022/03/05 00:24:37;;;;;;;66.40;32.75;;;;;;;1.61;74.99;100083.50;4424566;32;34517;-86
2022/03/05 00:27:24;;;;;;;63.28;30.73;;;;;;;1.99;72.63;100088.22;4424247;32;35856;-86
2022/03/05 00:30:11;;;;;;;62.10;31.20;;;;;;;1.98;73.18;100083.91;4428791;32;35221;-86
2022/03/05 00:32:57;;;;;;;59.15;30.75;;;;;;;2.17;72.96;100084.50;4425709;32;34250;-86
2022/03/05 00:35:43;;;;;;;60.05;30.83;;;;;;;2.95;68.73;100080.00;4426674;32;36065;-86
2022/03/05 00:38:29;;;;;;;58.70;28.17;;;;;;;3.02;68.14;100082.56;4426566;32;34991;-86
2022/03/05 00:41:16;;;;;;;58.30;29.23;;;;;;;2.57;69.47;100087.03;4426904;32;34226;-87
2022/03/05 00:44:03;;;;;;;57.15;28.58;;;;;;;2.90;68.30;100078.06;4431652;32;34120;-86
2022/03/05 00:46:49;;;;;;;58.53;28.67;;;;;;;1.56;73.22;100076.09;4436518;32;34237;-87
2022/03/05 00:49:36;;;;;;;58.53;29.83;;;;;;;1.07;78.50;100086.47;4414977;32;34443;-87
2022/03/05 00:52:22;;;;;;;60.92;28.70;;;;;;;2.43;71.61;100074.91;4422049;32;35516;-87
2022/03/05 00:55:09;;;;;;;57.97;28.77;;;;;;;2.83;68.78;100069.28;4433208;32;34254;-86
2022/03/05 00:57:55;;;;;;;59.10;29.10;;;;;;;2.86;68.33;100063.38;4426869;32;34139;-86
2022/03/05 01:00:43;;;;;;;59.42;28.67;;;;;;;2.97;67.58;100058.94;4436100;32;35661;-86
2022/03/05 01:03:29;;;;;;;58.63;28.52;;;;;;;2.95;67.25;100060.25;4433895;32;34465;-86
2022/03/05 01:06:15;;;;;;;51.85;25.80;;;;;;;3.02;67.05;100060.91;4434258;32;33819;-86
2022/03/05 01:09:03;;;;;;;50.78;23.98;;;;;;;3.19;66.47;100058.09;4425835;32;34655;-85
2022/03/05 01:11:49;;;;;;;46.42;23.58;;;;;;;3.18;65.64;100056.47;4435348;32;34972;-86
2022/03/05 01:14:36;;;;;;;45.60;22.52;;;;;;;3.12;66.11;100061.81;4423855;32;34388;-86
2022/03/05 01:17:24;;;;;;;44.90;21.40;;;;;;;3.33;65.31;100057.50;4433894;32;34256;-86
2022/03/05 01:20:11;;;;;;;44.83;21.45;;;;;;;3.05;65.75;100055.78;4428288;32;34197;-86
2022/03/05 01:22:57;;;;;;;44.08;21.33;;;;;;;2.80;66.05;100058.16;4434224;32;34596;-85
2022/03/05 01:25:44;;;;;;;45.30;21.25;;;;;;;0.85;73.00;100070.91;4432869;32;35189;-85
2022/03/05 01:28:30;;;;;;;51.33;23.65;;;;;;;1.82;70.61;100060.38;4432895;32;34967;-86
2022/03/05 01:31:18;;;;;;;47.35;22.98;;;;;;;1.50;73.00;100056.28;4433394;32;34576;-86
2022/03/05 01:34:04;;;;;;;42.13;21.87;;;;;;;2.10;70.18;100057.63;4438077;32;35077;-86
2022/03/05 01:36:50;;;;;;;42.83;21.50;;;;;;;2.56;66.89;100062.94;4435820;32;34117;-85
2022/03/05 01:39:38;;;;;;;47.15;22.45;;;;;;;2.88;65.70;100050.44;4448503;32;34341;-86
2022/03/05 01:42:25;;;;;;;44.03;23.23;;;;;;;2.10;67.82;100060.31;4447529;32;31895;-86
2022/03/05 01:45:12;;;;;;;43.42;22.48;;;;;;;1.83;70.92;100056.63;4447183;32;35653;-86
2022/03/05 01:47:59;;;;;;;44.55;21.77;;;;;;;2.25;68.88;100057.87;4436383;32;34283;-86
2022/03/05 01:50:47;;;;;;;43.45;21.60;;;;;;;2.10;69.08;100060.31;4436147;32;34310;-86
2022/03/05 01:53:33;;;;;;;48.60;23.85;;;;;;;1.43;71.63;100057.50;4448251;32;34667;-87
2022/03/05 01:56:21;;;;;;;44.28;22.13;;;;;;;0.84;75.87;100069.25;4435125;32;34933;-86
2022/03/05 01:59:08;;;;;;;52.17;25.70;;;;;;;0.74;76.91;100070.87;4448394;32;34199;-86
2022/03/05 02:01:54;;;;;;;47.15;23.00;;;;;;;-0.05;79.32;100077.37;4435768;32;34222;-86
2022/03/05 02:04:41;;;;;;;52.55;23.52;;;;;;;0.75;77.32;100072.53;4447584;32;35640;-86
2022/03/05 02:07:29;;;;;;;47.72;23.90;;;;;;;-0.03;78.79;100072.59;4436855;32;35736;-86
2022/03/05 02:10:15;;;;;;;49.63;23.40;;;;;;;0.11;78.67;100066.97;4436473;32;34858;-86
2022/03/05 02:13:02;;;;;;;55.08;23.87;;;;;;;-0.37;81.34;100070.59;4436351;32;35140;-87
2022/03/05 02:15:56;;;;;;;50.78;23.48;;;;;;;-0.29;82.47;100083.75;4435987;32;35602;-86
2022/03/05 02:18:46;;;;;;;48.60;22.20;;;;;;;-0.33;82.85;100079.88;4418088;32;34664;-85
2022/03/05 02:21:32;;;;;;;51.55;24.75;;;;;;;0.01;82.07;100085.59;4437175;32;34635;-87
2022/03/05 02:24:31;;;;;;;52.60;24.15;;;;;;;-0.33;81.05;100082.56;4447834;32;33456;-86
2022/03/05 02:27:21;;;;;;;48.10;22.85;;;;;;;-0.24;81.59;100083.88;4448122;32;34152;-87
2022/03/05 02:30:08;;;;;;;53.90;24.50;;;;;;;-0.53;82.84;100091.72;4436575;32;35020;-87
2022/03/05 02:32:55;;;;;;;49.70;22.52;;;;;;;-0.53;82.35;100086.34;4436979;32;34649;-86
2022/03/05 02:35:46;;;;;;;52.90;23.48;;;;;;;-0.39;81.73;100091.56;4441642;32;34335;-87
2022/03/05 02:38:32;;;;;;;55.65;23.87;;;;;;;-0.51;83.26;100089.62;4427409;32;34602;-86
2022/03/05 02:41:18;;;;;;;42.88;21.55;;;;;;;0.06;79.75;100089.25;4436717;32;35076;-86
2022/03/05 02:44:04;;;;;;;47.03;23.20;;;;;;;0.56;77.88;100088.84;4438498;32;34623;-87
2022/03/05 02:46:51;;;;;;;50.10;23.55;;;;;;;0.19;77.74;100090.91;4427154;32;35072;-86
2022/03/05 02:49:37;;;;;;;47.58;23.05;;;;;;;-0.09;80.57;100086.16;4443972;32;35714;-86
2022/03/05 02:52:23;;;;;;;50.55;24.33;;;;;;;1.28;74.59;100096.62;4441271;32;34599;-86
2022/03/05 02:55:09;;;;;;;46.80;23.35;;;;;;;0.78;73.22;100091.78;4439182;32;34592;-86
2022/03/05 02:57:56;;;;;;;53.65;24.83;;;;;;;0.94;73.74;100084.00;4422556;32;34200;-86
2022/03/05 03:00:43;;;;;;;52.85;25.05;;;;;;;1.77;70.26;100082.72;4427765;32;34554;-86
2022/03/05 03:03:30;;;;;;;50.85;23.67;;;;;;;1.99;68.02;100080.13;4438540;32;35732;-87
2022/03/05 03:06:17;;;;;;;50.47;23.90;;;;;;;2.24;67.29;100082.44;4434937;32;34850;-86
2022/03/05 03:09:03;;;;;;;45.95;22.20;;;;;;;2.43;65.63;100080.34;4438494;32;35437;-87
2022/03/05 03:11:50;;;;;;;49.55;23.12;;;;;;;2.34;65.71;100081.81;4430574;32;34385;-87
2022/03/05 03:14:36;;;;;;;50.20;23.45;;;;;;;2.16;66.11;100085.56;4434122;32;34941;-87
2022/03/05 03:17:24;;;;;;;49.15;23.35;;;;;;;2.01;66.65;100086.12;4432335;32;34188;-86
2022/03/05 03:20:12;;;;;;;48.53;22.80;;;;;;;2.13;66.50;100081.44;4419074;32;33940;-85
2022/03/05 03:22:58;;;;;;;45.22;22.15;;;;;;;1.90;67.30;100082.41;4444280;32;35537;-86
2022/03/05 03:25:44;;;;;;;53.70;23.00;;;;;;;1.80;67.48;100087.63;4420944;32;34951;-86
2022/03/05 03:28:31;;;;;;;48.40;21.90;;;;;;;1.85;67.24;100089.59;4426121;32;34556;-86
2022/03/05 03:31:17;;;;;;;50.15;23.02;;;;;;;1.94;66.87;100082.75;4440531;32;34534;-86
2022/03/05 03:34:04;;;;;;;49.67;24.48;;;;;;;1.88;67.15;100073.75;4440147;32;35225;-84
2022/03/05 03:36:51;;;;;;;43.67;23.25;;;;;;;1.98;66.90;100078.50;4435552;32;34936;-85
2022/03/05 03:39:39;;;;;;;53.80;23.73;;;;;;;2.06;66.52;100082.69;4418077;32;35574;-85
2022/03/05 03:42:26;;;;;;;49.53;23.75;;;;;;;1.95;66.79;100079.81;4443230;32;34042;-85
2022/03/05 03:45:13;;;;;;;50.05;24.58;;;;;;;2.06;66.41;100078.09;4428837;32;35984;-85
2022/03/05 03:47:59;;;;;;;50.67;23.35;;;;;;;2.11;66.17;100083.59;4424400;32;34944;-86
2022/03/05 03:50:46;;;;;;;51.30;23.02;;;;;;;2.23;65.66;100089.75;4427411;32;34134;-85
2022/03/05 03:53:32;;;;;;;47.10;22.10;;;;;;;2.24;65.52;100083.25;4425242;32;35242;-84
2022/03/05 03:56:18;;;;;;;50.15;22.30;;;;;;;2.01;66.24;100083.41;4428490;32;35435;-85
2022/03/05 03:59:04;;;;;;;49.75;22.30;;;;;;;2.30;65.54;100086.06;4438776;32;36001;-86
2022/03/05 04:01:51;;;;;;;47.50;22.42;;;;;;;2.32;65.22;100081.22;4440158;32;35536;-86
2022/03/05 04:04:37;;;;;;;49.47;22.45;;;;;;;2.43;64.50;100080.34;4438406;32;33979;-85
2022/03/05 04:10:29;;;;;;;46.08;21.30;;;;;;;2.31;64.21;100082.31;4424960;32;35861;-86
2022/03/05 04:13:16;;;;;;;41.47;20.98;;;;;;;2.05;64.96;100083.75;4417236;32;35248;-86
2022/03/05 04:16:02;;;;;;;42.42;21.27;;;;;;;2.10;65.63;100081.94;4438751;32;35861;-86
2022/03/05 04:18:49;;;;;;;48.08;21.27;;;;;;;2.34;63.71;100088.03;4425515;32;35518;-86
2022/03/05 04:21:36;;;;;;;42.42;21.60;;;;;;;1.25;66.83;100091.72;4430212;32;34468;-84
2022/03/05 04:24:21;;;;;;;43.63;21.02;;;;;;;1.33;67.62;100088.63;4428340;32;34564;-86
2022/03/05 04:27:08;;;;;;;44.17;20.52;;;;;;;0.44;71.42;100102.31;4440767;32;34333;-86
2022/03/05 04:29:54;;;;;;;42.67;20.42;;;;;;;1.01;70.30;100095.50;4432744;32;35493;-86
2022/03/05 04:32:41;;;;;;;38.00;17.23;;;;;;;1.46;68.44;100102.94;4441276;32;35719;-86
2022/03/05 04:35:28;;;;;;;39.35;17.62;;;;;;;1.66;66.34;100092.50;4442431;32;35402;-85
2022/03/05 04:38:14;;;;;;;38.72;17.02;;;;;;;1.69;66.03;100102.03;4446570;32;34232;-86
2022/03/05 04:41:00;;;;;;;34.13;16.73;;;;;;;1.21;67.30;100101.34;4429960;32;34520;-85
2022/03/05 04:43:47;;;;;;;33.60;15.15;;;;;;;1.45;66.05;100112.06;4428974;32;35688;-85
2022/03/05 04:46:34;;;;;;;35.92;15.38;;;;;;;1.04;67.26;100111.22;4444518;32;34698;-85
2022/03/05 04:49:21;;;;;;;29.83;14.30;;;;;;;1.43;66.39;100108.81;4444322;32;34737;-86
2022/03/05 04:52:07;;;;;;;32.92;15.18;;;;;;;1.74;64.77;100108.34;4441239;32;34515;-85
2022/03/05 04:54:53;;;;;;;33.08;14.73;;;;;;;2.03;63.64;100109.13;4434078;32;35036;-85
2022/03/05 04:57:40;;;;;;;33.72;15.07;;;;;;;1.97;63.75;100107.41;4442642;32;34767;-86
2022/03/05 05:00:26;;;;;;;31.83;14.80;;;;;;;2.13;63.26;100108.47;4429883;32;34107;-84
2022/03/05 05:03:12;;;;;;;31.27;14.80;;;;;;;2.09;63.18;100101.94;4442783;32;35506;-85
2022/03/05 05:06:00;;;;;;;31.45;14.48;;;;;;;2.23;62.62;100111.37;4439381;32;34953;-85
2022/03/05 05:08:46;;;;;;;31.20;14.50;;;;;;;2.17;62.64;100104.25;4443148;32;34700;-85
2022/03/05 05:11:33;;;;;;;30.30;14.07;;;;;;;2.27;62.63;100100.06;4426900;32;34164;-84
2022/03/05 05:14:20;;;;;;;32.28;13.90;;;;;;;2.32;62.32;100105.56;4434382;32;34400;-84
2022/03/05 05:17:06;;;;;;;31.45;13.52;;;;;;;2.10;62.70;100108.16;4435614;32;35008;-85
2022/03/05 05:19:52;;;;;;;26.83;12.15;;;;;;;2.37;62.03;100113.78;4438820;32;34083;-84
2022/03/05 05:22:39;;;;;;;29.48;13.85;;;;;;;2.35;62.01;100119.41;4434816;32;34904;-85
2022/03/05 05:25:25;;;;;;;28.70;14.10;;;;;;;2.17;62.47;100125.88;4440968;32;34620;-86
2022/03/05 05:28:12;;;;;;;25.90;12.25;;;;;;;2.34;62.21;100116.97;4442324;32;33864;-85
2022/03/05 05:30:58;;;;;;;24.02;12.15;;;;;;;2.42;62.30;100121.94;4429373;32;34518;-85
2022/03/05 05:33:45;;;;;;;28.30;12.85;;;;;;;2.40;61.99;100119.50;4442517;32;34280;-84
2022/03/05 05:36:31;;;;;;;25.67;12.05;;;;;;;2.08;62.58;100127.34;4437343;32;34671;-84
2022/03/05 05:39:17;;;;;;;25.83;12.45;;;;;;;2.03;63.42;100125.34;4448564;32;35559;-85
2022/03/05 05:42:04;;;;;;;24.52;11.65;;;;;;;2.16;62.38;100129.66;4446873;32;34303;-86
2022/03/05 05:44:51;;;;;;;25.17;12.00;;;;;;;2.24;62.91;100129.22;4449359;32;34073;-85
2022/03/05 05:47:37;;;;;;;23.73;11.20;;;;;;;1.10;66.17;100131.84;4437852;32;34661;-84
2022/03/05 05:50:24;;;;;;;24.40;12.25;;;;;;;0.86;67.77;100139.97;4447820;32;34659;-84
2022/03/05 05:53:10;;;;;;;24.50;12.10;;;;;;;2.06;63.28;100137.56;4449265;32;34556;-84
2022/03/05 05:55:57;;;;;;;27.98;13.32;;;;;;;1.42;64.80;100140.38;4449259;32;34126;-85
2022/03/05 05:58:43;;;;;;;29.27;11.95;;;;;;;2.14;63.33;100145.28;4433274;32;34534;-84
2022/03/05 06:01:31;;;;;;;25.52;12.07;;;;;;;2.24;62.47;100137.34;4448685;32;35771;-84
2022/03/05 06:04:17;;;;;;;23.55;11.02;;;;;;;1.54;64.76;100148.47;4437755;32;34286;-84
2022/03/05 06:07:03;;;;;;;23.85;11.57;;;;;;;0.34;69.37;100147.91;4436185;32;33998;-83
2022/03/05 06:09:50;;;;;;;27.40;11.98;;;;;;;0.47;69.19;100157.66;4448519;32;34713;-84
2022/03/05 06:12:38;;;;;;;28.00;12.70;;;;;;;-0.38;73.61;100152.44;4448698;32;35052;-84
2022/03/05 06:15:25;;;;;;;31.15;13.85;;;;;;;-0.09;73.29;100150.78;4428472;32;34624;-84
2022/03/05 06:18:11;;;;;;;28.30;13.93;;;;;;;0.22;71.59;100152.44;4436680;32;34137;-84
2022/03/05 06:21:01;;;;;;;30.58;14.05;;;;;;;0.80;69.52;100162.50;4435615;32;35415;-84
2022/03/05 06:23:47;;;;;;;28.58;13.43;;;;;;;0.79;68.08;100171.63;4447278;32;35744;-84
2022/03/05 06:26:34;;;;;;;28.87;11.90;;;;;;;0.58;70.47;100172.22;4437319;32;35945;-84
2022/03/05 06:29:22;;;;;;;24.35;11.80;;;;;;;0.99;68.91;100173.16;4435888;32;34703;-84
2022/03/05 06:32:09;;;;;;;26.23;11.82;;;;;;;2.03;64.98;100168.59;4447300;32;34686;-84
2022/03/05 06:34:55;;;;;;;23.92;11.45;;;;;;;2.07;64.51;100173.53;4448662;32;33725;-84
2022/03/05 06:37:42;;;;;;;25.00;12.02;;;;;;;2.52;62.88;100175.41;4436922;32;33552;-84
2022/03/05 06:40:28;;;;;;;23.50;10.65;;;;;;;2.77;61.95;100169.59;4435845;32;33927;-84
2022/03/05 06:43:15;;;;;;;24.67;11.93;;;;;;;3.04;60.47;100177.84;4450771;32;34646;-84
2022/03/05 06:46:01;;;;;;;27.65;12.25;;;;;;;2.97;60.86;100171.81;4448922;32;34920;-84
2022/03/05 06:48:48;;;;;;;34.25;15.20;;;;;;;3.19;60.01;100174.53;4448809;32;34940;-85
2022/03/05 06:51:35;;;;;;;37.28;16.05;;;;;;;2.70;61.01;100172.47;4447399;32;34453;-83
2022/03/05 06:54:21;;;;;;;39.40;16.02;;;;;;;2.76;60.33;100179.63;4448235;32;34810;-84
2022/03/05 06:57:08;;;;;;;33.35;15.35;;;;;;;2.41;61.66;100179.81;4447245;32;34696;-84
2022/03/05 06:59:54;;;;;;;31.27;15.98;;;;;;;3.18;59.52;100173.72;4447377;32;34685;-83
2022/03/05 07:02:41;;;;;;;25.62;13.88;;;;;;;3.43;58.58;100183.28;4435066;32;34743;-84
2022/03/05 07:05:28;;;;;;;33.80;15.98;;;;;;;1.93;61.52;100184.62;4446923;32;35526;-84
2022/03/05 07:08:14;;;;;;;28.60;14.07;;;;;;;3.14;59.33;100181.53;4436562;32;34962;-84
2022/03/05 07:11:01;;;;;;;27.85;12.93;;;;;;;3.47;57.37;100181.72;4448208;32;34543;-83
2022/03/05 07:13:47;;;;;;;24.08;11.23;;;;;;;3.70;56.52;100178.78;4446717;32;33110;-84
2022/03/05 07:16:33;;;;;;;24.33;12.07;;;;;;;3.91;55.71;100176.31;4447724;32;34738;-84
2022/03/05 07:19:20;;;;;;;24.60;12.15;;;;;;;3.66;56.52;100180.34;4422868;32;35869;-84
2022/03/05 07:22:06;;;;;;;24.55;11.77;;;;;;;3.32;57.14;100187.75;4446630;32;33504;-82
2022/03/05 07:24:53;;;;;;;19.77;10.52;;;;;;;3.41;56.15;100188.94;4435752;32;34177;-82
2022/03/05 07:27:39;;;;;;;18.40;9.02;;;;;;;3.15;56.93;100185.87;4435205;32;35585;-81
2022/03/05 07:30:25;;;;;;;16.75;8.32;;;;;;;3.76;54.57;100185.91;4436896;32;34417;-81
2022/03/05 07:33:12;;;;;;;19.27;9.80;;;;;;;3.30;54.75;100182.59;4425042;32;36222;-82
2022/03/05 07:35:58;;;;;;;21.48;9.57;;;;;;;3.86;53.41;100187.09;4434037;32;34027;-82
2022/03/05 07:38:44;;;;;;;21.33;9.98;;;;;;;2.07;59.63;100200.56;4430876;32;34814;-83
2022/03/05 07:41:31;;;;;;;20.37;8.90;;;;;;;1.69;61.23;100199.28;4437039;32;34895;-83
2022/03/05 07:44:17;;;;;;;18.42;8.57;;;;;;;2.72;58.44;100191.16;4431158;32;34867;-85
2022/03/05 07:47:04;;;;;;;24.23;8.75;;;;;;;3.71;55.30;100182.31;4434051;32;34380;-84
2022/03/05 07:49:51;;;;;;;16.65;8.30;;;;;;;4.01;54.11;100184.53;4417187;32;35452;-84
2022/03/05 07:52:37;;;;;;;17.58;7.95;;;;;;;3.93;53.65;100191.25;4426700;32;34984;-81
2022/03/05 07:55:24;;;;;;;18.05;9.18;;;;;;;4.46;53.23;100186.91;4426699;32;34545;-82
2022/03/05 07:58:10;;;;;;;19.92;8.40;;;;;;;3.10;57.85;100210.19;4435073;32;33562;-83
2022/03/05 08:00:58;;;;;;;17.02;7.75;;;;;;;2.79;59.44;100202.63;4421714;32;33183;-85
2022/03/05 08:03:44;;;;;;;15.40;8.45;;;;;;;3.80;57.23;100218.72;4422492;32;35980;-85
2022/03/05 08:06:30;;;;;;;16.25;6.75;;;;;;;2.94;57.49;100211.03;4431271;32;34470;-82
2022/03/05 08:09:17;;;;;;;14.60;7.00;;;;;;;2.10;61.42;100219.81;4436458;32;34208;-82
2022/03/05 08:12:04;;;;;;;12.60;6.03;;;;;;;2.56;62.20;100206.31;4431555;32;34728;-82
2022/03/05 08:14:50;;;;;;;16.48;6.70;;;;;;;2.89;60.84;100209.03;4437876;32;34545;-83
2022/03/05 08:17:47;;;;;;;14.75;6.47;;;;;;;3.40;59.04;100219.00;4433001;32;34731;-82
2022/03/05 08:20:34;;;;;;;13.85;6.03;;;;;;;3.51;58.35;100216.19;4431659;32;34851;-82
2022/03/05 08:23:20;;;;;;;13.00;5.78;;;;;;;3.19;57.89;100212.47;4430307;32;35119;-81
2022/03/05 08:26:10;;;;;;;14.10;6.80;;;;;;;3.73;56.43;100213.50;4440865;32;34815;-82
2022/03/05 08:28:56;;;;;;;14.63;6.62;;;;;;;3.31;58.43;100210.50;4429013;32;34570;-81
2022/03/05 08:31:43;;;;;;;15.57;7.25;;;;;;;3.43;58.00;100211.19;4433422;32;33969;-80
2022/03/05 08:34:29;;;;;;;14.10;7.12;;;;;;;3.69;57.77;100223.19;4432846;32;34232;-81
2022/03/05 08:37:15;;;;;;;14.95;7.55;;;;;;;3.29;58.88;100216.16;4440461;32;35919;-85
2022/03/05 08:40:06;;;;;;;15.57;7.78;;;;;;;3.18;59.55;100218.94;4432842;32;34881;-83
2022/03/05 08:42:52;;;;;;;13.60;7.50;;;;;;;4.29;56.35;100218.75;4409031;32;33903;-81
2022/03/05 08:45:39;;;;;;;15.38;7.70;;;;;;;3.92;57.25;100214.00;4431672;32;35266;-81
2022/03/05 08:48:26;;;;;;;16.42;7.85;;;;;;;4.41;56.17;100230.28;4437032;32;35594;-83
2022/03/05 08:51:12;;;;;;;15.23;7.72;;;;;;;3.93;57.18;100222.97;4445078;32;34095;-82
2022/03/05 08:53:58;;;;;;;15.95;7.68;;;;;;;4.61;56.04;100228.84;4437275;32;35275;-84
2022/03/05 08:56:45;;;;;;;17.40;7.65;;;;;;;4.06;56.13;100223.37;4446854;32;34642;-83
2022/03/05 08:59:31;;;;;;;15.80;7.93;;;;;;;3.95;57.02;100227.03;4439654;32;35027;-84
2022/03/05 09:02:17;;;;;;;16.65;8.13;;;;;;;4.17;57.06;100226.22;4447694;32;35453;-84
2022/03/05 09:05:04;;;;;;;15.75;7.87;;;;;;;4.82;55.56;100227.94;4422087;32;32944;-87
2022/03/05 09:07:50;;;;;;;16.35;8.27;;;;;;;4.72;54.89;100223.25;4434723;32;33313;-86
2022/03/05 09:10:37;;;;;;;17.35;8.45;;;;;;;5.09;53.93;100224.34;4424393;32;35984;-85
2022/03/05 09:13:23;;;;;;;13.20;6.80;;;;;;;5.14;52.75;100225.22;4434240;32;35210;-86
2022/03/05 09:16:09;;;;;;;17.33;7.28;;;;;;;4.96;52.19;100220.19;4433481;32;35082;-84
2022/03/05 09:18:56;;;;;;;16.67;7.60;;;;;;;4.94;52.17;100223.16;4432434;32;34558;-86
2022/03/05 09:21:42;;;;;;;16.42;7.32;;;;;;;5.18;52.13;100215.47;4436223;32;35101;-85
2022/03/05 09:24:28;;;;;;;13.00;7.05;;;;;;;5.15;51.60;100213.28;4436487;32;35487;-85
2022/03/05 09:27:15;;;;;;;15.20;7.65;;;;;;;5.25;52.08;100212.53;4427788;32;32996;-87
2022/03/05 09:30:03;;;;;;;17.15;7.82;;;;;;;5.76;49.31;100212.81;4425563;32;35453;-86
2022/03/05 09:32:49;;;;;;;15.70;8.07;;;;;;;5.33;50.30;100209.31;4427260;32;34897;-86
2022/03/05 09:35:35;;;;;;;14.98;6.62;;;;;;;5.29;49.79;100215.53;4438073;32;34357;-88
2022/03/05 09:38:22;;;;;;;13.10;7.35;;;;;;;5.55;49.07;100221.94;4433257;32;34456;-84
2022/03/05 09:41:08;;;;;;;12.88;6.65;;;;;;;4.26;48.92;100217.34;4431757;32;34567;-85
2022/03/05 09:43:55;;;;;;;16.65;6.75;;;;;;;3.91;49.58;100216.97;4421826;32;34947;-83
2022/03/05 09:46:42;;;;;;;13.35;6.53;;;;;;;4.55;49.59;100219.00;4425403;32;35543;-84
2022/03/05 09:49:29;;;;;;;12.18;6.55;;;;;;;4.12;50.24;100213.41;4445139;32;34985;-85
2022/03/05 09:52:15;;;;;;;16.17;7.32;;;;;;;5.27;47.14;100198.69;4434919;32;35137;-82
2022/03/05 09:55:03;;;;;;;12.37;6.35;;;;;;;5.16;47.31;100206.75;4430002;32;35041;-85
2022/03/05 09:57:49;;;;;;;15.60;7.37;;;;;;;4.40;46.81;100201.50;4422333;32;34640;-84
2022/03/05 10:00:36;;;;;;;12.40;6.40;;;;;;;3.92;47.99;100211.28;4426410;32;34018;-83
2022/03/05 10:03:22;;;;;;;12.85;6.45;;;;;;;3.93;48.27;100207.50;4421794;32;34683;-81
2022/03/05 10:06:20;;;;;;;13.70;6.70;;;;;;;4.00;47.69;100205.41;4424696;32;34926;-83
2022/03/05 10:09:20;;;;;;;13.35;6.80;;;;;;;4.07;47.14;100207.94;4432387;32;34731;-82
2022/03/05 10:12:34;;;;;;;14.05;6.82;;;;;;;3.99;46.51;100201.06;4439071;32;34034;-90
2022/03/05 10:15:21;;;;;;;14.87;7.37;;;;;;;4.51;46.80;100197.81;4431749;32;34583;-84
2022/03/05 10:18:07;;;;;;;13.45;6.60;;;;;;;4.33;47.01;100200.91;4426940;32;35968;-84
2022/03/05 10:20:53;;;;;;;14.57;7.07;;;;;;;4.86;46.09;100196.47;4437699;32;34318;-85
2022/03/05 10:23:42;;;;;;;12.80;6.43;;;;;;;4.29;46.04;100200.56;4433083;32;34172;-85
2022/03/05 10:26:48;;;;;;;12.48;6.75;;;;;;;4.12;47.55;100197.13;4434685;32;35553;-85
2022/03/05 10:29:39;;;;;;;13.80;6.25;;;;;;;4.96;46.58;100190.31;4405887;32;193008;-85
2022/03/05 10:32:27;;;;;;;12.88;6.32;;;;;;;4.82;44.27;100198.09;4437504;32;34897;-87
2022/03/05 10:35:18;;;;;;;12.43;6.22;;;;;;;5.12;45.01;100192.06;4417554;32;34039;-86
2022/03/05 10:38:05;;;;;;;54.63;24.55;;;;;;;6.24;42.60;100194.50;4430237;32;34599;-84
2022/03/05 10:40:54;;;;;;;17.62;9.27;;;;;;;5.11;43.28;100203.19;4431728;32;35890;-85
2022/03/05 10:43:40;;;;;;;12.73;6.80;;;;;;;5.14;44.25;100194.50;4429572;32;34188;-87
2022/03/05 10:46:46;;;;;;;16.08;8.20;;;;;;;6.25;42.86;100185.25;4419206;32;35010;-85
2022/03/05 10:49:38;;;;;;;13.23;6.18;;;;;;;5.48;42.74;100189.56;4420223;32;34674;-84
2022/03/05 10:52:24;;;;;;;11.40;5.65;;;;;;;5.08;43.51;100185.50;4415719;32;34691;-83
2022/03/05 10:55:18;;;;;;;11.98;5.90;;;;;;;5.06;43.22;100186.84;4431215;32;34409;-85
2022/03/05 10:58:17;;;;;;;12.37;5.90;;;;;;;4.99;43.89;100186.28;4429988;32;34139;-86
2022/03/05 11:01:03;;;;;;;11.93;6.10;;;;;;;4.45;43.89;100187.19;4419966;32;34996;-86
2022/03/05 11:03:52;;;;;;;13.55;5.90;;;;;;;4.87;43.51;100187.28;4432200;32;34969;-86
2022/03/05 11:06:40;;;;;;;10.02;4.97;;;;;;;5.86;42.74;100179.37;4429652;32;35219;-86
2022/03/05 11:09:29;;;;;;;10.00;5.03;;;;;;;6.03;41.33;100173.75;4431875;32;35033;-85
2022/03/05 11:12:17;;;;;;;11.85;5.72;;;;;;;6.97;39.00;100171.69;4429004;32;35094;-83
2022/03/05 11:15:07;;;;;;;11.05;5.32;;;;;;;6.34;39.19;100163.78;4418930;32;33829;-81
2022/03/05 11:17:54;;;;;;;11.95;5.87;;;;;;;6.55;40.60;100171.97;4417638;32;35173;-83
2022/03/05 11:20:42;;;;;;;10.88;5.45;;;;;;;7.07;39.92;100163.50;4417895;32;33860;-84
2022/03/05 11:23:28;;;;;;;12.18;5.62;;;;;;;5.61;40.19;100164.62;4429752;32;35294;-83
2022/03/05 11:26:16;;;;;;;11.15;5.20;;;;;;;5.31;42.33;100178.88;4431034;32;34927;-85
2022/03/05 11:29:03;;;;;;;13.32;6.37;;;;;;;5.93;41.35;100168.28;4421089;32;35249;-84
2022/03/05 11:31:50;;;;;;;12.82;6.25;;;;;;;5.52;41.74;100168.94;4419116;32;33910;-86
2022/03/05 11:34:44;;;;;;;13.57;6.57;;;;;;;6.02;40.84;100159.34;4432840;32;34737;-86
2022/03/05 11:37:33;;;;;;;13.10;6.00;;;;;;;5.73;42.22;100158.97;4428034;32;34887;-86
2022/03/05 11:40:37;;;;;;;12.07;5.57;;;;;;;6.63;40.19;100155.91;4422533;32;35453;-87
2022/03/05 11:43:25;;;;;;;33.70;17.45;;;;;;;6.48;40.03;100145.00;4440690;32;35512;-87
2022/03/05 11:46:22;;;;;;;14.15;6.22;;;;;;;6.34;40.47;100146.63;4430949;32;33464;-86
2022/03/05 11:49:11;;;;;;;13.48;6.22;;;;;;;6.78;39.84;100146.13;4435459;32;35164;-86
2022/03/05 11:51:59;;;;;;;13.18;6.28;;;;;;;6.45;39.73;100148.28;4435517;32;34333;-86
2022/03/05 11:55:14;;;;;;;10.55;5.72;;;;;;;6.83;40.06;100146.94;4421400;32;34186;-82
2022/03/05 11:58:23;;;;;;;10.75;5.80;;;;;;;7.10;39.35;100143.06;4434722;32;34130;-81
2022/03/05 12:01:39;;;;;;;12.23;6.45;;;;;;;6.72;39.91;100134.41;4440052;32;34890;-81
2022/03/05 12:04:30;;;;;;;14.25;6.93;;;;;;;6.81;39.92;100140.12;4427496;32;34417;-80
2022/03/05 12:07:18;;;;;;;14.05;6.12;;;;;;;5.77;41.54;100135.56;4440014;32;34235;-82
2022/03/05 12:10:13;;;;;;;12.88;6.62;;;;;;;6.69;40.09;100137.69;4436581;32;34704;-80
2022/03/05 12:13:04;;;;;;;14.15;6.62;;;;;;;6.95;39.41;100130.28;4427140;32;35259;-80
2022/03/05 12:15:52;;;;;;;12.93;6.40;;;;;;;5.93;41.75;100131.03;4430946;32;35181;-81
2022/03/05 12:18:40;;;;;;;12.37;6.37;;;;;;;6.61;41.21;100122.69;4439199;32;34338;-81
2022/03/05 12:21:32;;;;;;;12.10;6.30;;;;;;;5.77;40.50;100124.69;4430678;32;34125;-81
2022/03/05 12:24:18;;;;;;;15.07;7.07;;;;;;;5.56;41.98;100120.28;4435468;32;34980;-82
2022/03/05 12:27:09;;;;;;;13.65;6.37;;;;;;;6.98;39.81;100127.00;4427127;32;33722;-81
2022/03/05 12:29:55;;;;;;;13.38;6.12;;;;;;;6.89;38.99;100121.31;4435622;32;35336;-81
2022/03/05 12:32:45;;;;;;;11.00;5.90;;;;;;;6.90;39.63;100122.13;4425717;32;34643;-81
2022/03/05 12:35:32;;;;;;;12.00;5.87;;;;;;;6.72;40.48;100121.59;4432470;32;35924;-82
2022/03/05 12:38:20;;;;;;;10.35;5.53;;;;;;;6.62;40.47;100120.78;4442629;32;35323;-81
2022/03/05 12:41:06;;;;;;;11.35;6.05;;;;;;;6.56;39.21;100119.97;4422852;32;36953;-81
2022/03/05 12:43:53;;;;;;;12.10;5.75;;;;;;;6.26;40.08;100118.03;4428168;32;34539;-81
2022/03/05 12:46:40;;;;;;;12.13;6.12;;;;;;;6.28;39.96;100119.41;4424531;32;35936;-82
2022/03/05 12:49:27;;;;;;;9.20;5.30;;;;;;;6.29;40.11;100118.34;4425216;32;34696;-81
2022/03/05 12:52:17;;;;;;;15.63;6.28;;;;;;;6.52;40.41;100116.16;4424289;32;35082;-81
2022/03/05 12:55:04;;;;;;;12.73;5.75;;;;;;;6.59;38.90;100121.31;4440771;32;34620;-83
2022/03/05 12:57:50;;;;;;;11.73;5.87;;;;;;;5.60;40.51;100121.38;4442591;32;36047;-81